Leaman Place, Pennsylvania
Current Conditions -  °F | °C
As of 7:55 AM on Saturday 20 Dec 2014 (Local Time) from KMQS Reporting Station
Overcast Overcast  
Wind Chill: 27°   Ceiling: 2400
Heat Index: 32°   Visibility: 10mi
Dew Point: 23°   Wind: 5mph
Humidity: 69%   Direction: 340°NNW
Pressure: 30.27"   Gusts: NA
Location:  39.9757°N, 76.0913°W
Report Text: KMQS 201255Z AUTO 34004KT 10SM OVC024 00/M05 A3027 RMK AO2
Loading
Personal Weather Stations






























Interactive Weather Map New forecast layout! Learn more

10-Day Weather Forecast

Advertisements
Track Severe Weather on mobile